sensor_id;sensor_type;location;lat;lon;timestamp;pressure;altitude;pressure_sealevel;temperature;humidity
72061;BME280;59925;52.136;5.420;2023-08-07T00:01:12;101420.75;;;12.59;100.00
72061;BME280;59925;52.136;5.420;2023-08-07T00:03:39;101411.88;;;12.59;100.00
72061;BME280;59925;52.136;5.420;2023-08-07T00:06:06;101414.84;;;12.57;100.00
72061;BME280;59925;52.136;5.420;2023-08-07T00:08:32;101418.34;;;12.57;100.00
72061;BME280;59925;52.136;5.420;2023-08-07T00:11:09;101417.00;;;12.55;100.00
72061;BME280;59925;52.136;5.420;2023-08-07T00:13:36;101419.69;;;12.55;100.00
72061;BME280;59925;52.136;5.420;2023-08-07T00:16:03;101424.00;;;12.56;100.00
72061;BME280;59925;52.136;5.420;2023-08-07T00:18:30;101424.25;;;12.54;100.00
72061;BME280;59925;52.136;5.420;2023-08-07T00:20:56;101424.00;;;12.56;100.00
72061;BME280;59925;52.136;5.420;2023-08-07T00:23:23;101426.94;;;12.54;100.00
72061;BME280;59925;52.136;5.420;2023-08-07T00:25:49;101427.75;;;12.55;100.00
72061;BME280;59925;52.136;5.420;2023-08-07T00:28:16;101433.94;;;12.55;100.00
72061;BME280;59925;52.136;5.420;2023-08-07T00:30:43;101424.25;;;12.54;100.00
72061;BME280;59925;52.136;5.420;2023-08-07T00:33:09;101435.81;;;12.55;100.00
72061;BME280;59925;52.136;5.420;2023-08-07T00:35:35;101429.63;;;12.54;100.00
72061;BME280;59925;52.136;5.420;2023-08-07T00:38:02;101428.84;;;12.54;100.00
72061;BME280;59925;52.136;5.420;2023-08-07T00:40:36;101426.94;;;12.54;100.00
72061;BME280;59925;52.136;5.420;2023-08-07T00:43:04;101426.94;;;12.54;100.00
72061;BME280;59925;52.136;5.420;2023-08-07T00:45:36;101426.94;;;12.54;100.00
72061;BME280;59925;52.136;5.420;2023-08-07T00:48:04;101425.31;;;12.53;100.00
72061;BME280;59925;52.136;5.420;2023-08-07T00:50:31;101423.44;;;12.54;100.00
72061;BME280;59925;52.136;5.420;2023-08-07T00:53:12;101422.91;;;12.52;100.00
72061;BME280;59925;52.136;5.420;2023-08-07T00:55:39;101421.84;;;12.53;100.00
72061;BME280;59925;52.136;5.420;2023-08-07T00:58:06;101424.53;;;12.53;100.00
72061;BME280;59925;52.136;5.420;2023-08-07T01:00:32;101421.84;;;12.53;100.00
72061;BME280;59925;52.136;5.420;2023-08-07T01:03:00;101423.44;;;12.54;100.00
72061;BME280;59925;52.136;5.420;2023-08-07T01:05:28;101426.13;;;12.54;100.00
72061;BME280;59925;52.136;5.420;2023-08-07T01:07:55;101423.16;;;12.55;100.00
72061;BME280;59925;52.136;5.420;2023-08-07T01:10:26;101422.38;;;12.55;100.00
72061;BME280;59925;52.136;5.420;2023-08-07T01:13:03;101434.75;;;12.56;100.00
72061;BME280;59925;52.136;5.420;2023-08-07T01:15:32;101429.38;;;12.56;100.00
72061;BME280;59925;52.136;5.420;2023-08-07T01:17:59;101429.88;;;12.58;100.00
72061;BME280;59925;52.136;5.420;2023-08-07T01:20:26;101424.50;;;12.58;100.00
72061;BME280;59925;52.136;5.420;2023-08-07T01:22:53;101426.13;;;12.59;100.00
72061;BME280;59925;52.136;5.420;2023-08-07T01:25:19;101435.81;;;12.60;100.00
72061;BME280;59925;52.136;5.420;2023-08-07T01:27:52;101428.81;;;12.59;100.00
72061;BME280;59925;52.136;5.420;2023-08-07T01:33:16;101434.19;;;12.59;100.00
72061;BME280;59925;52.136;5.420;2023-08-07T01:35:47;101439.56;;;12.59;100.00
72061;BME280;59925;52.136;5.420;2023-08-07T01:38:16;101436.88;;;12.59;100.00
72061;BME280;59925;52.136;5.420;2023-08-07T01:40:43;101435.81;;;12.60;100.00
72061;BME280;59925;52.136;5.420;2023-08-07T01:43:10;101442.00;;;12.61;100.00
72061;BME280;59925;52.136;5.420;2023-08-07T01:45:36;101437.19;;;12.63;100.00
72061;BME280;59925;52.136;5.420;2023-08-07T01:48:03;101447.66;;;12.64;100.00
72061;BME280;59925;52.136;5.420;2023-08-07T01:50:31;101443.91;;;12.65;100.00
72061;BME280;59925;52.136;5.420;2023-08-07T01:52:57;101442.81;;;12.66;100.00
72061;BME280;59925;52.136;5.420;2023-08-07T01:55:24;101442.81;;;12.66;100.00
72061;BME280;59925;52.136;5.420;2023-08-07T01:57:50;101443.38;;;12.68;100.00
72061;BME280;59925;52.136;5.420;2023-08-07T02:00:17;101447.66;;;12.69;100.00
72061;BME280;59925;52.136;5.420;2023-08-07T02:02:44;101438.78;;;12.69;100.00
72061;BME280;59925;52.136;5.420;2023-08-07T02:05:14;101451.44;;;12.68;100.00
72061;BME280;59925;52.136;5.420;2023-08-07T02:07:41;101444.16;;;12.69;100.00
72061;BME280;59925;52.136;5.420;2023-08-07T02:10:08;101452.22;;;12.69;100.00
72061;BME280;59925;52.136;5.420;2023-08-07T02:12:35;101453.06;;;12.69;100.00
72061;BME280;59925;52.136;5.420;2023-08-07T02:15:02;101455.75;;;12.69;100.00
72061;BME280;59925;52.136;5.420;2023-08-07T02:17:28;101451.16;;;12.70;100.00
72061;BME280;59925;52.136;5.420;2023-08-07T02:19:59;101458.16;;;12.71;100.00
72061;BME280;59925;52.136;5.420;2023-08-07T02:22:25;101468.91;;;12.71;100.00
72061;BME280;59925;52.136;5.420;2023-08-07T02:24:52;101459.50;;;12.68;100.00
72061;BME280;59925;52.136;5.420;2023-08-07T02:27:18;101457.59;;;12.69;100.00
72061;BME280;59925;52.136;5.420;2023-08-07T02:29:45;101450.88;;;12.66;100.00
72061;BME280;59925;52.136;5.420;2023-08-07T02:32:12;101455.44;;;12.66;100.00
72061;BME280;59925;52.136;5.420;2023-08-07T02:34:38;101455.72;;;12.64;100.00
72061;BME280;59925;52.136;5.420;2023-08-07T02:37:05;101458.41;;;12.64;100.00
72061;BME280;59925;52.136;5.420;2023-08-07T02:39:31;101456.53;;;12.65;100.00
72061;BME280;59925;52.136;5.420;2023-08-07T02:41:58;101463.25;;;12.67;100.00
72061;BME280;59925;52.136;5.420;2023-08-07T02:44:25;101462.72;;;12.65;100.00
72061;BME280;59925;52.136;5.420;2023-08-07T02:46:51;101469.44;;;12.68;100.00
72061;BME280;59925;52.136;5.420;2023-08-07T02:49:18;101468.66;;;12.67;100.00
72061;BME280;59925;52.136;5.420;2023-08-07T02:51:45;101465.97;;;12.67;100.00
72061;BME280;59925;52.136;5.420;2023-08-07T02:54:11;101467.03;;;12.66;100.00
72061;BME280;59925;52.136;5.420;2023-08-07T02:56:38;101461.38;;;12.68;100.00
72061;BME280;59925;52.136;5.420;2023-08-07T02:59:04;101462.19;;;12.68;100.00
72061;BME280;59925;52.136;5.420;2023-08-07T03:01:32;101464.34;;;12.66;100.00
72061;BME280;59925;52.136;5.420;2023-08-07T03:03:59;101466.75;;;12.68;100.00
72061;BME280;59925;52.136;5.420;2023-08-07T03:06:25;101467.03;;;12.66;100.00
72061;BME280;59925;52.136;5.420;2023-08-07T03:08:52;101458.13;;;12.66;100.00
72061;BME280;59925;52.136;5.420;2023-08-07T03:11:18;101461.09;;;12.64;100.00
72061;BME280;59925;52.136;5.420;2023-08-07T03:13:45;101454.09;;;12.63;100.00
72061;BME280;59925;52.136;5.420;2023-08-07T03:16:11;101454.09;;;12.63;100.00
72061;BME280;59925;52.136;5.420;2023-08-07T03:18:38;101443.63;;;12.62;100.00
72061;BME280;59925;52.136;5.420;2023-08-07T03:21:05;101449.25;;;12.60;100.00
72061;BME280;59925;52.136;5.420;2023-08-07T03:23:31;101448.47;;;12.60;100.00
72061;BME280;59925;52.136;5.420;2023-08-07T03:26:09;101439.56;;;12.59;100.00
72061;BME280;59925;52.136;5.420;2023-08-07T03:28:39;101453.56;;;12.56;100.00
72061;BME280;59925;52.136;5.420;2023-08-07T03:31:06;101440.94;;;12.56;100.00
72061;BME280;59925;52.136;5.420;2023-08-07T03:33:32;101447.38;;;12.55;100.00
72061;BME280;59925;52.136;5.420;2023-08-07T03:35:59;101445.50;;;12.56;100.00
72061;BME280;59925;52.136;5.420;2023-08-07T03:38:25;101436.38;;;12.57;100.00
72061;BME280;59925;52.136;5.420;2023-08-07T03:40:52;101446.59;;;12.55;100.00
72061;BME280;59925;52.136;5.420;2023-08-07T03:43:18;101448.19;;;12.56;100.00
72061;BME280;59925;52.136;5.420;2023-08-07T03:45:45;101443.91;;;12.55;100.00
72061;BME280;59925;52.136;5.420;2023-08-07T03:48:11;101443.91;;;12.55;100.00
72061;BME280;59925;52.136;5.420;2023-08-07T03:50:38;101441.75;;;12.57;100.00
72061;BME280;59925;52.136;5.420;2023-08-07T03:53:05;101446.84;;;12.59;100.00
72061;BME280;59925;52.136;5.420;2023-08-07T03:55:34;101447.63;;;12.59;100.00
72061;BME280;59925;52.136;5.420;2023-08-07T03:58:01;101443.34;;;12.58;100.00
72061;BME280;59925;52.136;5.420;2023-08-07T04:00:28;101449.25;;;12.60;100.00
72061;BME280;59925;52.136;5.420;2023-08-07T04:02:54;101449.81;;;12.62;100.00
72061;BME280;59925;52.136;5.420;2023-08-07T04:05:21;101441.72;;;12.62;100.00
72061;BME280;59925;52.136;5.420;2023-08-07T04:07:47;101447.66;;;12.64;100.00
72061;BME280;59925;52.136;5.420;2023-08-07T04:10:14;101448.19;;;12.66;100.00
72061;BME280;59925;52.136;5.420;2023-08-07T04:12:41;101440.94;;;12.67;100.00
72061;BME280;59925;52.136;5.420;2023-08-07T04:15:07;101453.31;;;12.68;100.00
72061;BME280;59925;52.136;5.420;2023-08-07T04:17:35;101450.63;;;12.68;100.00
72061;BME280;59925;52.136;5.420;2023-08-07T04:20:02;101456.53;;;12.70;100.00
72061;BME280;59925;52.136;5.420;2023-08-07T04:22:30;101455.75;;;12.69;100.00
72061;BME280;59925;52.136;5.420;2023-08-07T04:24:56;101460.03;;;12.70;100.00
72061;BME280;59925;52.136;5.420;2023-08-07T04:27:23;101462.72;;;12.70;100.00
72061;BME280;59925;52.136;5.420;2023-08-07T04:29:49;101468.09;;;12.70;100.00
72061;BME280;59925;52.136;5.420;2023-08-07T04:32:16;101465.41;;;12.70;100.00
72061;BME280;59925;52.136;5.420;2023-08-07T04:34:42;101467.84;;;12.72;100.00
72061;BME280;59925;52.136;5.420;2023-08-07T04:37:09;101469.47;;;12.73;100.00
72061;BME280;59925;52.136;5.420;2023-08-07T04:39:36;101467.84;;;12.72;100.00
72061;BME280;59925;52.136;5.420;2023-08-07T04:42:03;101481.00;;;12.73;100.00
72061;BME280;59925;52.136;5.420;2023-08-07T04:44:30;101482.63;;;12.75;100.00
72061;BME280;59925;52.136;5.420;2023-08-07T04:46:56;101486.94;;;12.76;100.00
72061;BME280;59925;52.136;5.420;2023-08-07T04:49:23;101490.69;;;12.75;100.00
72061;BME280;59925;52.136;5.420;2023-08-07T04:51:50;101496.91;;;12.75;100.00
72061;BME280;59925;52.136;5.420;2023-08-07T04:54:16;101499.84;;;12.73;100.00
72061;BME280;59925;52.136;5.420;2023-08-07T04:56:43;101493.66;;;12.73;100.00
72061;BME280;59925;52.136;5.420;2023-08-07T04:59:11;101493.38;;;12.75;100.00
72061;BME280;59925;52.136;5.420;2023-08-07T05:01:37;101499.31;;;12.77;100.00
72061;BME280;59925;52.136;5.420;2023-08-07T05:04:05;101494.72;;;12.77;100.00
72061;BME280;59925;52.136;5.420;2023-08-07T05:06:31;101497.16;;;12.79;100.00
72061;BME280;59925;52.136;5.420;2023-08-07T05:08:58;101507.66;;;12.80;100.00
72061;BME280;59925;52.136;5.420;2023-08-07T05:11:24;101516.28;;;12.82;100.00
72061;BME280;59925;52.136;5.420;2023-08-07T05:13:51;101521.66;;;12.82;100.00
72061;BME280;59925;52.136;5.420;2023-08-07T05:16:18;101531.06;;;12.85;100.00
72061;BME280;59925;52.136;5.420;2023-08-07T05:18:45;101533.25;;;12.83;100.00
72061;BME280;59925;52.136;5.420;2023-08-07T05:21:15;101528.09;;;12.81;100.00
72061;BME280;59925;52.136;5.420;2023-08-07T05:23:42;101533.47;;;12.81;100.00
72061;BME280;59925;52.136;5.420;2023-08-07T05:26:09;101529.72;;;12.82;100.00
72061;BME280;59925;52.136;5.420;2023-08-07T05:28:35;101535.94;;;12.83;100.00
72061;BME280;59925;52.136;5.420;2023-08-07T05:31:02;101530.53;;;12.83;100.00
72061;BME280;59925;52.136;5.420;2023-08-07T05:33:29;101526.22;;;12.87;100.00
72061;BME280;59925;52.136;5.420;2023-08-07T05:35:55;101537.00;;;12.87;100.00
72061;BME280;59925;52.136;5.420;2023-08-07T05:38:22;101535.91;;;12.88;100.00
72061;BME280;59925;52.136;5.420;2023-08-07T05:40:48;101539.44;;;12.88;100.00
72061;BME280;59925;52.136;5.420;2023-08-07T05:43:16;101545.31;;;12.91;100.00
72061;BME280;59925;52.136;5.420;2023-08-07T05:45:43;101545.31;;;12.91;100.00
72061;BME280;59925;52.136;5.420;2023-08-07T05:48:11;101546.69;;;12.93;100.00
72061;BME280;59925;52.136;5.420;2023-08-07T05:50:38;101556.09;;;12.96;100.00
72061;BME280;59925;52.136;5.420;2023-08-07T05:53:04;101553.69;;;12.94;100.00
72061;BME280;59925;52.136;5.420;2023-08-07T05:55:31;101548.56;;;12.98;100.00
72061;BME280;59925;52.136;5.420;2023-08-07T05:57:58;101550.19;;;12.99;100.00
72061;BME280;59925;52.136;5.420;2023-08-07T06:00:24;101556.38;;;12.99;100.00
72061;BME280;59925;52.136;5.420;2023-08-07T06:02:51;101549.94;;;13.06;100.00
72061;BME280;59925;52.136;5.420;2023-08-07T06:05:17;101552.63;;;13.06;100.00
72061;BME280;59925;52.136;5.420;2023-08-07T06:07:44;101560.41;;;13.07;100.00
72061;BME280;59925;52.136;5.420;2023-08-07T06:10:11;101552.59;;;13.11;100.00
72061;BME280;59925;52.136;5.420;2023-08-07T06:12:38;101561.78;;;13.15;100.00
72061;BME280;59925;52.136;5.420;2023-08-07T06:15:05;101562.03;;;13.18;100.00
72061;BME280;59925;52.136;5.420;2023-08-07T06:17:31;101566.06;;;13.26;100.00
72061;BME280;59925;52.136;5.420;2023-08-07T06:19:58;101580.34;;;13.32;100.00
72061;BME280;59925;52.136;5.420;2023-08-07T06:22:25;101574.69;;;13.39;100.00
72061;BME280;59925;52.136;5.420;2023-08-07T06:24:52;101576.88;;;13.42;100.00
72061;BME280;59925;52.136;5.420;2023-08-07T06:27:21;101580.91;;;13.49;100.00
72061;BME280;59925;52.136;5.420;2023-08-07T06:29:47;101577.41;;;13.59;100.00
72061;BME280;59925;52.136;5.420;2023-08-07T06:32:14;101577.63;;;13.73;100.00
72061;BME280;59925;52.136;5.420;2023-08-07T06:34:40;101585.44;;;13.85;100.00
72061;BME280;59925;52.136;5.420;2023-08-07T06:37:07;101589.72;;;13.91;100.00
72061;BME280;59925;52.136;5.420;2023-08-07T06:39:33;101582.72;;;13.95;100.00
72061;BME280;59925;52.136;5.420;2023-08-07T06:42:00;101586.75;;;13.98;100.00
72061;BME280;59925;52.136;5.420;2023-08-07T06:44:27;101592.13;;;14.03;100.00
72061;BME280;59925;52.136;5.420;2023-08-07T06:46:53;101597.78;;;14.07;100.00
72061;BME280;59925;52.136;5.420;2023-08-07T06:49:20;101589.41;;;14.14;100.00
72061;BME280;59925;52.136;5.420;2023-08-07T06:51:46;101595.03;;;14.17;100.00
72061;BME280;59925;52.136;5.420;2023-08-07T06:54:13;101596.91;;;14.27;100.00
72061;BME280;59925;52.136;5.420;2023-08-07T06:56:39;101604.44;;;14.35;100.00
72061;BME280;59925;52.136;5.420;2023-08-07T06:59:08;101600.06;;;14.45;100.00
72061;BME280;59925;52.136;5.420;2023-08-07T07:01:35;101606.16;;;14.71;100.00
72061;BME280;59925;52.136;5.420;2023-08-07T07:04:02;101604.75;;;14.84;100.00
72061;BME280;59925;52.136;5.420;2023-08-07T07:06:30;101605.44;;;15.00;100.00
72061;BME280;59925;52.136;5.420;2023-08-07T07:08:56;101617.94;;;14.91;100.00
72061;BME280;59925;52.136;5.420;2023-08-07T07:11:23;101611.47;;;14.86;100.00
72061;BME280;59925;52.136;5.420;2023-08-07T07:13:51;101626.41;;;14.74;100.00
72061;BME280;59925;52.136;5.420;2023-08-07T07:16:18;101641.31;;;14.55;100.00
72061;BME280;59925;52.136;5.420;2023-08-07T07:18:49;101632.16;;;14.46;100.00
72061;BME280;59925;52.136;5.420;2023-08-07T07:21:15;101635.44;;;14.33;100.00
72061;BME280;59925;52.136;5.420;2023-08-07T07:23:42;101640.59;;;14.29;100.00
72061;BME280;59925;52.136;5.420;2023-08-07T07:26:08;101648.97;;;14.22;100.00
72061;BME280;59925;52.136;5.420;2023-08-07T07:28:35;101651.38;;;14.24;100.00
72061;BME280;59925;52.136;5.420;2023-08-07T07:31:02;101643.47;;;14.48;100.00
72061;BME280;59925;52.136;5.420;2023-08-07T07:33:30;101649.66;;;14.54;100.00
72061;BME280;59925;52.136;5.420;2023-08-07T07:35:57;101652.00;;;14.81;100.00
72061;BME280;59925;52.136;5.420;2023-08-07T07:38:24;101654.50;;;15.12;100.00
72061;BME280;59925;52.136;5.420;2023-08-07T07:40:52;101653.03;;;15.30;100.00
72061;BME280;59925;52.136;5.420;2023-08-07T07:43:23;101666.13;;;15.53;100.00
72061;BME280;59925;52.136;5.420;2023-08-07T07:45:49;101664.78;;;15.85;100.00
72061;BME280;59925;52.136;5.420;2023-08-07T07:48:16;101663.16;;;16.13;100.00
72061;BME280;59925;52.136;5.420;2023-08-07T07:50:43;101659.59;;;16.18;99.81
72061;BME280;59925;52.136;5.420;2023-08-07T07:53:09;101661.50;;;16.17;98.51
72061;BME280;59925;52.136;5.420;2023-08-07T07:55:36;101673.25;;;16.02;98.26
72061;BME280;59925;52.136;5.420;2023-08-07T07:58:04;101681.59;;;15.76;97.49
72061;BME280;59925;52.136;5.420;2023-08-07T08:00:31;101675.09;;;15.43;98.14
72061;BME280;59925;52.136;5.420;2023-08-07T08:02:57;101684.72;;;15.20;98.42
72061;BME280;59925;52.136;5.420;2023-08-07T08:05:24;101687.78;;;15.02;99.05
72061;BME280;59925;52.136;5.420;2023-08-07T08:07:50;101691.31;;;14.98;99.92
72061;BME280;59925;52.136;5.420;2023-08-07T08:10:17;101694.06;;;14.88;99.61
72061;BME280;59925;52.136;5.420;2023-08-07T08:12:43;101703.81;;;14.83;99.75
72061;BME280;59925;52.136;5.420;2023-08-07T08:15:10;101711.41;;;14.71;99.91
72061;BME280;59925;52.136;5.420;2023-08-07T08:17:37;101706.03;;;14.61;99.88
72061;BME280;59925;52.136;5.420;2023-08-07T08:20:04;101702.78;;;14.64;100.00
72061;BME280;59925;52.136;5.420;2023-08-07T08:22:31;101712.25;;;14.71;100.00
72061;BME280;59925;52.136;5.420;2023-08-07T08:24:58;101725.44;;;14.73;100.00
72061;BME280;59925;52.136;5.420;2023-08-07T08:27:24;101715.72;;;14.77;99.77
72061;BME280;59925;52.136;5.420;2023-08-07T08:29:51;101711.88;;;14.94;99.21
72061;BME280;59925;52.136;5.420;2023-08-07T08:32:18;101709.75;;;15.30;98.30
72061;BME280;59925;52.136;5.420;2023-08-07T08:34:44;101713.13;;;15.57;97.83
72061;BME280;59925;52.136;5.420;2023-08-07T08:37:12;101706.69;;;15.82;97.03
72061;BME280;59925;52.136;5.420;2023-08-07T08:39:38;101715.97;;;16.05;95.99
72061;BME280;59925;52.136;5.420;2023-08-07T08:42:05;101714.78;;;16.17;95.14
72061;BME280;59925;52.136;5.420;2023-08-07T08:44:36;101726.59;;;16.26;94.86
72061;BME280;59925;52.136;5.420;2023-08-07T08:47:06;101714.00;;;16.65;93.82
72061;BME280;59925;52.136;5.420;2023-08-07T08:49:35;101708.22;;;16.72;91.64
72061;BME280;59925;52.136;5.420;2023-08-07T08:52:04;101722.94;;;16.41;91.28
72061;BME280;59925;52.136;5.420;2023-08-07T08:54:32;101730.25;;;16.11;90.29
72061;BME280;59925;52.136;5.420;2023-08-07T08:56:59;101738.88;;;15.78;89.58
72061;BME280;59925;52.136;5.420;2023-08-07T08:59:26;101742.34;;;15.50;88.93
72061;BME280;59925;52.136;5.420;2023-08-07T09:01:53;101747.84;;;15.34;88.96
72061;BME280;59925;52.136;5.420;2023-08-07T09:04:19;101763.59;;;15.16;88.86
72061;BME280;59925;52.136;5.420;2023-08-07T09:06:46;101747.94;;;15.19;89.95
72061;BME280;59925;52.136;5.420;2023-08-07T09:09:14;101744.09;;;15.30;89.85
72061;BME280;59925;52.136;5.420;2023-08-07T09:11:45;101745.63;;;15.46;89.80
72061;BME280;59925;52.136;5.420;2023-08-07T09:14:15;101747.69;;;15.60;89.24
72061;BME280;59925;52.136;5.420;2023-08-07T09:16:44;101745.84;;;15.90;88.61
72061;BME280;59925;52.136;5.420;2023-08-07T09:19:12;101747.13;;;15.98;87.17
72061;BME280;59925;52.136;5.420;2023-08-07T09:21:39;101748.38;;;16.11;87.51
72061;BME280;59925;52.136;5.420;2023-08-07T09:24:06;101758.72;;;16.57;87.56
72061;BME280;59925;52.136;5.420;2023-08-07T09:26:33;101752.28;;;16.77;85.94
72061;BME280;59925;52.136;5.420;2023-08-07T09:29:02;101757.53;;;16.93;85.06
72061;BME280;59925;52.136;5.420;2023-08-07T09:31:29;101750.31;;;17.07;85.03
72061;BME280;59925;52.136;5.420;2023-08-07T09:34:04;101755.81;;;17.21;83.69
72061;BME280;59925;52.136;5.420;2023-08-07T09:36:31;101766.28;;;17.28;82.40
72061;BME280;59925;52.136;5.420;2023-08-07T09:39:02;101761.69;;;17.09;81.51
72061;BME280;59925;52.136;5.420;2023-08-07T09:41:32;101758.41;;;16.88;81.35
72061;BME280;59925;52.136;5.420;2023-08-07T09:44:09;101756.09;;;16.76;82.82
72061;BME280;59925;52.136;5.420;2023-08-07T09:46:44;101759.22;;;16.64;82.18
72061;BME280;59925;52.136;5.420;2023-08-07T09:49:11;101765.09;;;16.47;81.60
72061;BME280;59925;52.136;5.420;2023-08-07T09:51:44;101774.34;;;16.41;82.34
72061;BME280;59925;52.136;5.420;2023-08-07T09:54:10;101774.69;;;16.34;81.52
72061;BME280;59925;52.136;5.420;2023-08-07T09:56:39;101781.59;;;16.46;82.53
72061;BME280;59925;52.136;5.420;2023-08-07T09:59:06;101788.56;;;16.76;82.76
72061;BME280;59925;52.136;5.420;2023-08-07T10:01:36;101798.50;;;16.86;82.18
72061;BME280;59925;52.136;5.420;2023-08-07T10:04:05;101794.47;;;16.83;81.48
72061;BME280;59925;52.136;5.420;2023-08-07T10:06:33;101801.31;;;16.76;80.74
72061;BME280;59925;52.136;5.420;2023-08-07T10:09:00;101804.81;;;16.52;79.70
72061;BME280;59925;52.136;5.420;2023-08-07T10:11:28;101806.63;;;16.32;80.61
72061;BME280;59925;52.136;5.420;2023-08-07T10:13:55;101804.31;;;16.20;81.35
72061;BME280;59925;52.136;5.420;2023-08-07T10:16:25;101803.16;;;16.27;81.50
72061;BME280;59925;52.136;5.420;2023-08-07T10:18:52;101801.94;;;16.43;81.53
72061;BME280;59925;52.136;5.420;2023-08-07T10:21:19;101807.88;;;16.69;80.29
72061;BME280;59925;52.136;5.420;2023-08-07T10:23:46;101802.25;;;17.34;81.29
72061;BME280;59925;52.136;5.420;2023-08-07T10:26:14;101796.88;;;17.53;79.53
72061;BME280;59925;52.136;5.420;2023-08-07T10:28:42;101791.81;;;17.65;79.39
72061;BME280;59925;52.136;5.420;2023-08-07T10:31:10;101800.06;;;17.55;76.83
72061;BME280;59925;52.136;5.420;2023-08-07T10:33:40;101799.28;;;17.54;77.93
72061;BME280;59925;52.136;5.420;2023-08-07T10:36:10;101795.66;;;17.78;77.79
72061;BME280;59925;52.136;5.420;2023-08-07T10:38:37;101788.13;;;18.27;78.04
72061;BME280;59925;52.136;5.420;2023-08-07T10:41:14;101811.13;;;18.30;74.74
72061;BME280;59925;52.136;5.420;2023-08-07T10:43:44;101796.19;;;17.99;74.50
72061;BME280;59925;52.136;5.420;2023-08-07T10:46:14;101800.94;;;17.69;74.90
72061;BME280;59925;52.136;5.420;2023-08-07T10:48:46;101797.44;;;17.30;74.51
72061;BME280;59925;52.136;5.420;2023-08-07T10:51:17;101809.06;;;17.31;75.22
72061;BME280;59925;52.136;5.420;2023-08-07T10:53:48;101809.97;;;17.45;75.52
72061;BME280;59925;52.136;5.420;2023-08-07T10:56:17;101800.72;;;17.85;76.56
72061;BME280;59925;52.136;5.420;2023-08-07T10:58:49;101800.66;;;18.23;74.93
72061;BME280;59925;52.136;5.420;2023-08-07T11:04:02;101813.38;;;18.42;74.54
72061;BME280;59925;52.136;5.420;2023-08-07T11:06:33;101808.97;;;18.46;74.92
72061;BME280;59925;52.136;5.420;2023-08-07T11:09:03;101805.00;;;18.24;73.94
72061;BME280;59925;52.136;5.420;2023-08-07T11:11:36;101821.38;;;18.00;74.07
72061;BME280;59925;52.136;5.420;2023-08-07T11:14:07;101833.63;;;17.78;72.46
72061;BME280;59925;52.136;5.420;2023-08-07T11:16:35;101828.88;;;17.89;73.08
72061;BME280;59925;52.136;5.420;2023-08-07T11:19:02;101833.41;;;17.93;72.94
72061;BME280;59925;52.136;5.420;2023-08-07T11:21:30;101828.00;;;17.74;72.26
72061;BME280;59925;52.136;5.420;2023-08-07T11:24:00;101844.28;;;17.74;71.90
72061;BME280;59925;52.136;5.420;2023-08-07T11:26:27;101838.13;;;17.69;72.07
72061;BME280;59925;52.136;5.420;2023-08-07T11:28:55;101827.84;;;17.85;71.54
72061;BME280;59925;52.136;5.420;2023-08-07T11:31:22;101818.88;;;18.22;72.06
72061;BME280;59925;52.136;5.420;2023-08-07T11:34:00;101830.63;;;18.65;70.87
72061;BME280;59925;52.136;5.420;2023-08-07T11:36:30;101824.66;;;18.63;71.11
72061;BME280;59925;52.136;5.420;2023-08-07T11:38:58;101830.03;;;18.96;69.53
72061;BME280;59925;52.136;5.420;2023-08-07T11:41:24;101825.13;;;19.12;68.19
72061;BME280;59925;52.136;5.420;2023-08-07T11:43:51;101835.13;;;19.39;69.35
72061;BME280;59925;52.136;5.420;2023-08-07T11:46:17;101825.53;;;19.56;66.42
72061;BME280;59925;52.136;5.420;2023-08-07T11:48:44;101824.78;;;19.64;64.95
72061;BME280;59925;52.136;5.420;2023-08-07T11:51:11;101823.06;;;19.68;64.93
72061;BME280;59925;52.136;5.420;2023-08-07T11:53:40;101832.88;;;19.92;65.61
72061;BME280;59925;52.136;5.420;2023-08-07T11:56:09;101822.13;;;20.10;65.00
72061;BME280;59925;52.136;5.420;2023-08-07T11:58:39;101828.88;;;20.44;64.40
72061;BME280;59925;52.136;5.420;2023-08-07T12:01:09;101823.41;;;20.44;61.96
72061;BME280;59925;52.136;5.420;2023-08-07T12:03:37;101810.53;;;20.27;62.24
72061;BME280;59925;52.136;5.420;2023-08-07T12:06:08;101817.19;;;20.52;62.32
72061;BME280;59925;52.136;5.420;2023-08-07T12:08:41;101813.53;;;20.88;63.66
72061;BME280;59925;52.136;5.420;2023-08-07T12:11:10;101804.41;;;20.93;61.84
72061;BME280;59925;52.136;5.420;2023-08-07T12:13:41;101812.38;;;20.80;61.12
72061;BME280;59925;52.136;5.420;2023-08-07T12:16:09;101809.25;;;20.64;61.77
72061;BME280;59925;52.136;5.420;2023-08-07T12:18:36;101804.72;;;20.91;60.39
72061;BME280;59925;52.136;5.420;2023-08-07T12:21:07;101808.75;;;20.94;57.05
72061;BME280;59925;52.136;5.420;2023-08-07T12:23:35;101815.19;;;21.16;57.72
72061;BME280;59925;52.136;5.420;2023-08-07T12:26:03;101812.28;;;21.03;56.99
72061;BME280;59925;52.136;5.420;2023-08-07T12:28:36;101830.66;;;20.80;59.55
72061;BME280;59925;52.136;5.420;2023-08-07T12:31:03;101824.78;;;21.04;54.65
72061;BME280;59925;52.136;5.420;2023-08-07T12:33:30;101818.66;;;20.90;54.75
72061;BME280;59925;52.136;5.420;2023-08-07T12:35:58;101817.56;;;21.00;52.70
72061;BME280;59925;52.136;5.420;2023-08-07T12:38:25;101827.84;;;21.03;52.73
72061;BME280;59925;52.136;5.420;2023-08-07T12:40:52;101821.06;;;20.91;52.61
72061;BME280;59925;52.136;5.420;2023-08-07T12:43:18;101829.66;;;21.16;54.77
72061;BME280;59925;52.136;5.420;2023-08-07T12:45:45;101824.03;;;21.21;53.63
72061;BME280;59925;52.136;5.420;2023-08-07T12:48:15;101816.50;;;21.27;54.87
72061;BME280;59925;52.136;5.420;2023-08-07T12:50:42;101818.44;;;21.53;52.89